sensor_id;sensor_type;location;lat;lon;timestamp;temperature;humidity
33428;DHT22;19769;48.150;16.306;2023-03-01T00:00:45;2.80;96.50
33428;DHT22;19769;48.150;16.306;2023-03-01T00:03:12;2.70;96.60
33428;DHT22;19769;48.150;16.306;2023-03-01T00:05:43;2.70;96.60
33428;DHT22;19769;48.150;16.306;2023-03-01T00:08:09;2.70;96.80
33428;DHT22;19769;48.150;16.306;2023-03-01T00:10:34;2.70;96.80
33428;DHT22;19769;48.150;16.306;2023-03-01T00:13:00;2.70;96.90
33428;DHT22;19769;48.150;16.306;2023-03-01T00:15:26;2.70;97.00
33428;DHT22;19769;48.150;16.306;2023-03-01T00:17:52;2.70;97.20
33428;DHT22;19769;48.150;16.306;2023-03-01T00:20:17;2.70;97.20
33428;DHT22;19769;48.150;16.306;2023-03-01T00:22:43;2.70;97.10
33428;DHT22;19769;48.150;16.306;2023-03-01T00:25:09;2.60;97.20
33428;DHT22;19769;48.150;16.306;2023-03-01T00:27:34;2.60;97.30
33428;DHT22;19769;48.150;16.306;2023-03-01T00:30:00;2.60;97.30
33428;DHT22;19769;48.150;16.306;2023-03-01T00:32:26;2.60;97.60
33428;DHT22;19769;48.150;16.306;2023-03-01T00:34:51;2.50;97.70
33428;DHT22;19769;48.150;16.306;2023-03-01T00:37:23;2.60;97.90
33428;DHT22;19769;48.150;16.306;2023-03-01T00:39:49;2.50;97.80
33428;DHT22;19769;48.150;16.306;2023-03-01T00:42:15;2.50;97.70
33428;DHT22;19769;48.150;16.306;2023-03-01T00:44:41;2.60;97.70
33428;DHT22;19769;48.150;16.306;2023-03-01T00:47:07;2.50;97.70
33428;DHT22;19769;48.150;16.306;2023-03-01T00:49:33;2.60;97.70
33428;DHT22;19769;48.150;16.306;2023-03-01T00:51:58;2.50;97.70
33428;DHT22;19769;48.150;16.306;2023-03-01T00:54:24;2.50;97.50
33428;DHT22;19769;48.150;16.306;2023-03-01T00:56:50;2.50;97.90
33428;DHT22;19769;48.150;16.306;2023-03-01T00:59:16;2.40;98.30
33428;DHT22;19769;48.150;16.306;2023-03-01T01:01:41;2.50;98.50
33428;DHT22;19769;48.150;16.306;2023-03-01T01:04:08;2.40;98.60
33428;DHT22;19769;48.150;16.306;2023-03-01T01:06:45;2.50;98.50
33428;DHT22;19769;48.150;16.306;2023-03-01T01:09:12;2.40;98.30
33428;DHT22;19769;48.150;16.306;2023-03-01T01:11:43;2.40;98.40
33428;DHT22;19769;48.150;16.306;2023-03-01T01:14:09;2.50;98.60
33428;DHT22;19769;48.150;16.306;2023-03-01T01:16:35;2.50;98.50
33428;DHT22;19769;48.150;16.306;2023-03-01T01:19:01;2.50;98.50
33428;DHT22;19769;48.150;16.306;2023-03-01T01:21:27;2.50;98.50
33428;DHT22;19769;48.150;16.306;2023-03-01T01:23:52;2.50;98.40
33428;DHT22;19769;48.150;16.306;2023-03-01T01:26:22;2.50;98.40
33428;DHT22;19769;48.150;16.306;2023-03-01T01:28:49;2.50;98.50
33428;DHT22;19769;48.150;16.306;2023-03-01T01:31:15;2.60;98.60
33428;DHT22;19769;48.150;16.306;2023-03-01T01:33:41;2.60;98.50
33428;DHT22;19769;48.150;16.306;2023-03-01T01:36:07;2.70;98.60
33428;DHT22;19769;48.150;16.306;2023-03-01T01:38:33;2.80;98.50
33428;DHT22;19769;48.150;16.306;2023-03-01T01:40:59;2.80;98.40
33428;DHT22;19769;48.150;16.306;2023-03-01T01:43:26;2.90;98.80
33428;DHT22;19769;48.150;16.306;2023-03-01T01:45:55;2.90;98.80
33428;DHT22;19769;48.150;16.306;2023-03-01T01:48:21;3.00;98.30
33428;DHT22;19769;48.150;16.306;2023-03-01T01:50:53;3.00;98.10
33428;DHT22;19769;48.150;16.306;2023-03-01T01:53:20;3.00;98.10
33428;DHT22;19769;48.150;16.306;2023-03-01T01:55:54;3.00;98.60
33428;DHT22;19769;48.150;16.306;2023-03-01T01:58:22;3.10;98.60
33428;DHT22;19769;48.150;16.306;2023-03-01T02:00:49;3.10;98.60
33428;DHT22;19769;48.150;16.306;2023-03-01T02:03:17;3.10;98.70
33428;DHT22;19769;48.150;16.306;2023-03-01T02:05:57;3.10;98.80
33428;DHT22;19769;48.150;16.306;2023-03-01T02:08:25;3.20;99.20
33428;DHT22;19769;48.150;16.306;2023-03-01T02:10:51;3.20;99.50
33428;DHT22;19769;48.150;16.306;2023-03-01T02:13:17;3.20;99.40
33428;DHT22;19769;48.150;16.306;2023-03-01T02:15:43;3.30;99.30
33428;DHT22;19769;48.150;16.306;2023-03-01T02:18:10;3.30;99.60
33428;DHT22;19769;48.150;16.306;2023-03-01T02:23:21;3.30;98.90
33428;DHT22;19769;48.150;16.306;2023-03-01T02:30:42;3.50;98.50
33428;DHT22;19769;48.150;16.306;2023-03-01T02:33:29;3.50;98.10
33428;DHT22;19769;48.150;16.306;2023-03-01T02:35:59;3.50;98.20
33428;DHT22;19769;48.150;16.306;2023-03-01T02:38:26;3.50;98.80
33428;DHT22;19769;48.150;16.306;2023-03-01T02:40:53;3.50;99.20
33428;DHT22;19769;48.150;16.306;2023-03-01T02:43:20;3.50;99.40
33428;DHT22;19769;48.150;16.306;2023-03-01T02:45:50;3.50;99.20
33428;DHT22;19769;48.150;16.306;2023-03-01T02:48:16;3.50;99.20
33428;DHT22;19769;48.150;16.306;2023-03-01T02:55:36;3.50;99.80
33428;DHT22;19769;48.150;16.306;2023-03-01T02:58:02;3.50;99.30
33428;DHT22;19769;48.150;16.306;2023-03-01T03:00:36;3.60;98.80
33428;DHT22;19769;48.150;16.306;2023-03-01T03:03:05;3.60;98.70
33428;DHT22;19769;48.150;16.306;2023-03-01T03:05:31;3.60;98.80
33428;DHT22;19769;48.150;16.306;2023-03-01T03:07:58;3.60;99.00
33428;DHT22;19769;48.150;16.306;2023-03-01T03:10:26;3.60;98.50
33428;DHT22;19769;48.150;16.306;2023-03-01T03:12:53;3.60;98.70
33428;DHT22;19769;48.150;16.306;2023-03-01T03:15:20;3.60;98.70
33428;DHT22;19769;48.150;16.306;2023-03-01T03:17:46;3.60;98.60
33428;DHT22;19769;48.150;16.306;2023-03-01T03:20:13;3.60;98.80
33428;DHT22;19769;48.150;16.306;2023-03-01T03:22:44;3.70;99.10
33428;DHT22;19769;48.150;16.306;2023-03-01T03:25:10;3.70;99.30
33428;DHT22;19769;48.150;16.306;2023-03-01T03:27:36;3.60;99.30
33428;DHT22;19769;48.150;16.306;2023-03-01T03:30:04;3.70;99.20
33428;DHT22;19769;48.150;16.306;2023-03-01T03:32:37;3.70;99.30
33428;DHT22;19769;48.150;16.306;2023-03-01T03:35:03;3.70;99.70
33428;DHT22;19769;48.150;16.306;2023-03-01T03:37:38;3.70;99.90
33428;DHT22;19769;48.150;16.306;2023-03-01T03:40:22;3.70;99.90
33428;DHT22;19769;48.150;16.306;2023-03-01T03:42:48;3.70;99.90
33428;DHT22;19769;48.150;16.306;2023-03-01T03:45:14;3.70;99.90
33428;DHT22;19769;48.150;16.306;2023-03-01T03:47:40;3.60;99.90
33428;DHT22;19769;48.150;16.306;2023-03-01T03:50:06;3.70;99.90
33428;DHT22;19769;48.150;16.306;2023-03-01T03:52:32;3.70;99.90
33428;DHT22;19769;48.150;16.306;2023-03-01T03:54:58;3.70;99.90
33428;DHT22;19769;48.150;16.306;2023-03-01T03:57:23;3.70;99.90
33428;DHT22;19769;48.150;16.306;2023-03-01T03:59:49;3.70;99.90
33428;DHT22;19769;48.150;16.306;2023-03-01T04:02:15;3.70;99.90
33428;DHT22;19769;48.150;16.306;2023-03-01T04:04:47;3.60;99.90
33428;DHT22;19769;48.150;16.306;2023-03-01T04:07:15;3.70;99.90
33428;DHT22;19769;48.150;16.306;2023-03-01T04:09:41;3.70;99.90
33428;DHT22;19769;48.150;16.306;2023-03-01T04:12:08;3.70;99.90
33428;DHT22;19769;48.150;16.306;2023-03-01T04:14:33;3.70;99.90
33428;DHT22;19769;48.150;16.306;2023-03-01T04:16:59;3.80;99.90
33428;DHT22;19769;48.150;16.306;2023-03-01T04:19:25;3.80;99.90
33428;DHT22;19769;48.150;16.306;2023-03-01T04:21:53;3.80;99.50
33428;DHT22;19769;48.150;16.306;2023-03-01T04:24:18;3.80;99.20
33428;DHT22;19769;48.150;16.306;2023-03-01T04:26:44;3.80;99.40
33428;DHT22;19769;48.150;16.306;2023-03-01T04:29:10;3.80;99.60
33428;DHT22;19769;48.150;16.306;2023-03-01T04:31:35;3.80;99.80
33428;DHT22;19769;48.150;16.306;2023-03-01T04:34:01;3.80;99.60
33428;DHT22;19769;48.150;16.306;2023-03-01T04:36:28;3.90;99.30
33428;DHT22;19769;48.150;16.306;2023-03-01T04:38:54;3.90;99.00
33428;DHT22;19769;48.150;16.306;2023-03-01T04:41:21;3.90;99.40
33428;DHT22;19769;48.150;16.306;2023-03-01T04:43:47;3.90;99.70
33428;DHT22;19769;48.150;16.306;2023-03-01T04:46:15;3.90;99.30
33428;DHT22;19769;48.150;16.306;2023-03-01T04:48:41;3.90;99.00
33428;DHT22;19769;48.150;16.306;2023-03-01T04:51:07;3.90;98.80
33428;DHT22;19769;48.150;16.306;2023-03-01T04:53:34;3.90;98.50
33428;DHT22;19769;48.150;16.306;2023-03-01T04:56:01;3.90;98.30
33428;DHT22;19769;48.150;16.306;2023-03-01T04:58:27;4.00;98.30
33428;DHT22;19769;48.150;16.306;2023-03-01T05:00:53;4.00;98.50
33428;DHT22;19769;48.150;16.306;2023-03-01T05:03:19;4.00;98.90
33428;DHT22;19769;48.150;16.306;2023-03-01T05:05:46;4.00;99.00
33428;DHT22;19769;48.150;16.306;2023-03-01T05:08:12;4.00;99.10
33428;DHT22;19769;48.150;16.306;2023-03-01T05:10:43;4.00;99.00
33428;DHT22;19769;48.150;16.306;2023-03-01T05:13:09;4.00;98.90
33428;DHT22;19769;48.150;16.306;2023-03-01T05:15:35;4.00;99.10
33428;DHT22;19769;48.150;16.306;2023-03-01T05:18:01;4.00;99.10
33428;DHT22;19769;48.150;16.306;2023-03-01T05:20:28;3.90;99.10
33428;DHT22;19769;48.150;16.306;2023-03-01T05:22:55;3.90;99.10
33428;DHT22;19769;48.150;16.306;2023-03-01T05:25:21;4.00;99.30
33428;DHT22;19769;48.150;16.306;2023-03-01T05:27:47;4.00;99.00
33428;DHT22;19769;48.150;16.306;2023-03-01T05:30:13;4.00;99.00
33428;DHT22;19769;48.150;16.306;2023-03-01T05:32:40;4.00;98.90
33428;DHT22;19769;48.150;16.306;2023-03-01T05:35:06;4.00;98.60
33428;DHT22;19769;48.150;16.306;2023-03-01T05:37:32;4.00;98.50
33428;DHT22;19769;48.150;16.306;2023-03-01T05:39:57;4.10;98.40
33428;DHT22;19769;48.150;16.306;2023-03-01T05:42:23;4.10;98.10
33428;DHT22;19769;48.150;16.306;2023-03-01T05:44:49;4.20;97.50
33428;DHT22;19769;48.150;16.306;2023-03-01T05:47:14;4.10;97.10
33428;DHT22;19769;48.150;16.306;2023-03-01T05:49:40;4.10;97.60
33428;DHT22;19769;48.150;16.306;2023-03-01T05:52:06;4.20;98.10
33428;DHT22;19769;48.150;16.306;2023-03-01T05:54:31;4.20;98.20
33428;DHT22;19769;48.150;16.306;2023-03-01T05:56:58;4.20;98.60
33428;DHT22;19769;48.150;16.306;2023-03-01T05:59:24;4.20;99.20
33428;DHT22;19769;48.150;16.306;2023-03-01T06:01:49;4.20;99.30
33428;DHT22;19769;48.150;16.306;2023-03-01T06:04:16;4.20;98.70
33428;DHT22;19769;48.150;16.306;2023-03-01T06:06:42;4.20;98.50
33428;DHT22;19769;48.150;16.306;2023-03-01T06:09:07;4.20;98.20
33428;DHT22;19769;48.150;16.306;2023-03-01T06:11:35;4.30;98.00
33428;DHT22;19769;48.150;16.306;2023-03-01T06:14:01;4.30;97.80
33428;DHT22;19769;48.150;16.306;2023-03-01T06:16:27;4.30;97.70
33428;DHT22;19769;48.150;16.306;2023-03-01T06:18:52;4.30;97.50
33428;DHT22;19769;48.150;16.306;2023-03-01T06:21:18;4.30;97.30
33428;DHT22;19769;48.150;16.306;2023-03-01T06:23:44;4.30;97.00
33428;DHT22;19769;48.150;16.306;2023-03-01T06:26:09;4.40;97.10
33428;DHT22;19769;48.150;16.306;2023-03-01T06:28:36;4.40;97.20
33428;DHT22;19769;48.150;16.306;2023-03-01T06:31:02;4.40;97.20
33428;DHT22;19769;48.150;16.306;2023-03-01T06:33:28;4.50;97.10
33428;DHT22;19769;48.150;16.306;2023-03-01T06:35:54;4.60;96.70
33428;DHT22;19769;48.150;16.306;2023-03-01T06:38:20;4.60;96.30
33428;DHT22;19769;48.150;16.306;2023-03-01T06:40:50;4.60;96.30
33428;DHT22;19769;48.150;16.306;2023-03-01T06:43:17;4.70;96.90
33428;DHT22;19769;48.150;16.306;2023-03-01T06:45:42;4.70;96.80
33428;DHT22;19769;48.150;16.306;2023-03-01T06:48:08;4.70;96.80
33428;DHT22;19769;48.150;16.306;2023-03-01T06:50:34;4.70;96.90
33428;DHT22;19769;48.150;16.306;2023-03-01T06:53:00;4.80;96.80
33428;DHT22;19769;48.150;16.306;2023-03-01T06:55:26;4.90;96.30
33428;DHT22;19769;48.150;16.306;2023-03-01T06:57:56;4.90;96.10
33428;DHT22;19769;48.150;16.306;2023-03-01T07:00:22;5.00;96.10
33428;DHT22;19769;48.150;16.306;2023-03-01T07:02:47;5.00;95.80
33428;DHT22;19769;48.150;16.306;2023-03-01T07:05:13;5.00;95.50
33428;DHT22;19769;48.150;16.306;2023-03-01T07:07:39;5.00;95.40
33428;DHT22;19769;48.150;16.306;2023-03-01T07:10:05;5.00;95.30
33428;DHT22;19769;48.150;16.306;2023-03-01T07:12:31;5.00;95.50
33428;DHT22;19769;48.150;16.306;2023-03-01T07:14:56;5.00;95.60
33428;DHT22;19769;48.150;16.306;2023-03-01T07:17:22;5.00;95.30
33428;DHT22;19769;48.150;16.306;2023-03-01T07:19:48;5.00;95.30
33428;DHT22;19769;48.150;16.306;2023-03-01T07:22:13;5.00;95.10
33428;DHT22;19769;48.150;16.306;2023-03-01T07:24:40;5.10;95.20
33428;DHT22;19769;48.150;16.306;2023-03-01T07:27:06;5.20;95.30
33428;DHT22;19769;48.150;16.306;2023-03-01T07:29:31;5.30;94.60
33428;DHT22;19769;48.150;16.306;2023-03-01T07:31:57;5.40;94.10
33428;DHT22;19769;48.150;16.306;2023-03-01T07:34:23;5.40;94.20
33428;DHT22;19769;48.150;16.306;2023-03-01T07:36:49;5.50;94.40
33428;DHT22;19769;48.150;16.306;2023-03-01T07:39:15;5.50;93.60
33428;DHT22;19769;48.150;16.306;2023-03-01T07:41:40;5.60;93.40
33428;DHT22;19769;48.150;16.306;2023-03-01T07:44:06;5.70;92.90
33428;DHT22;19769;48.150;16.306;2023-03-01T07:46:32;5.70;93.20
33428;DHT22;19769;48.150;16.306;2023-03-01T07:48:58;5.80;94.40
33428;DHT22;19769;48.150;16.306;2023-03-01T07:51:23;5.80;94.00
33428;DHT22;19769;48.150;16.306;2023-03-01T07:53:49;5.80;94.00
33428;DHT22;19769;48.150;16.306;2023-03-01T07:56:17;5.80;93.00
33428;DHT22;19769;48.150;16.306;2023-03-01T07:58:43;5.80;93.00
33428;DHT22;19769;48.150;16.306;2023-03-01T08:01:14;5.90;93.00
33428;DHT22;19769;48.150;16.306;2023-03-01T08:03:40;5.90;92.40
33428;DHT22;19769;48.150;16.306;2023-03-01T08:06:07;5.90;92.10
33428;DHT22;19769;48.150;16.306;2023-03-01T08:08:34;5.90;92.10
33428;DHT22;19769;48.150;16.306;2023-03-01T08:11:00;6.00;91.90
33428;DHT22;19769;48.150;16.306;2023-03-01T08:13:26;6.00;91.90
33428;DHT22;19769;48.150;16.306;2023-03-01T08:15:52;6.00;92.40
33428;DHT22;19769;48.150;16.306;2023-03-01T08:18:18;6.10;91.70
33428;DHT22;19769;48.150;16.306;2023-03-01T08:20:44;6.10;91.00
33428;DHT22;19769;48.150;16.306;2023-03-01T08:23:10;6.20;91.10
33428;DHT22;19769;48.150;16.306;2023-03-01T08:25:36;6.30;91.30
33428;DHT22;19769;48.150;16.306;2023-03-01T08:28:02;6.40;91.30
33428;DHT22;19769;48.150;16.306;2023-03-01T08:30:28;6.50;91.30
33428;DHT22;19769;48.150;16.306;2023-03-01T08:32:54;6.70;91.30
33428;DHT22;19769;48.150;16.306;2023-03-01T08:35:20;6.90;90.80
33428;DHT22;19769;48.150;16.306;2023-03-01T08:37:46;7.00;90.20
33428;DHT22;19769;48.150;16.306;2023-03-01T08:40:12;7.10;90.00
33428;DHT22;19769;48.150;16.306;2023-03-01T08:42:39;7.40;89.40
33428;DHT22;19769;48.150;16.306;2023-03-01T08:45:06;7.60;88.80
33428;DHT22;19769;48.150;16.306;2023-03-01T08:47:32;7.90;88.90
33428;DHT22;19769;48.150;16.306;2023-03-01T08:49:59;8.20;86.60
33428;DHT22;19769;48.150;16.306;2023-03-01T08:52:25;8.40;84.00
33428;DHT22;19769;48.150;16.306;2023-03-01T08:54:51;8.60;83.30
33428;DHT22;19769;48.150;16.306;2023-03-01T08:57:17;8.80;80.70
33428;DHT22;19769;48.150;16.306;2023-03-01T08:59:43;9.20;79.70
33428;DHT22;19769;48.150;16.306;2023-03-01T09:02:12;9.40;77.50
33428;DHT22;19769;48.150;16.306;2023-03-01T09:04:38;9.40;76.10
33428;DHT22;19769;48.150;16.306;2023-03-01T09:07:04;9.60;74.00
33428;DHT22;19769;48.150;16.306;2023-03-01T09:09:30;9.70;72.80
33428;DHT22;19769;48.150;16.306;2023-03-01T09:11:55;9.80;71.30
33428;DHT22;19769;48.150;16.306;2023-03-01T09:14:21;9.90;71.20
33428;DHT22;19769;48.150;16.306;2023-03-01T09:16:47;9.80;71.80
33428;DHT22;19769;48.150;16.306;2023-03-01T09:19:12;9.70;69.80
33428;DHT22;19769;48.150;16.306;2023-03-01T09:21:38;9.60;70.10
33428;DHT22;19769;48.150;16.306;2023-03-01T09:24:04;9.60;69.90
33428;DHT22;19769;48.150;16.306;2023-03-01T09:26:30;9.60;69.90
33428;DHT22;19769;48.150;16.306;2023-03-01T09:28:56;9.80;69.90
33428;DHT22;19769;48.150;16.306;2023-03-01T09:31:22;9.80;67.20
33428;DHT22;19769;48.150;16.306;2023-03-01T09:33:49;9.70;67.60
33428;DHT22;19769;48.150;16.306;2023-03-01T09:36:16;9.50;66.70
33428;DHT22;19769;48.150;16.306;2023-03-01T09:38:42;9.40;67.10
33428;DHT22;19769;48.150;16.306;2023-03-01T09:46:19;9.10;67.00
33428;DHT22;19769;48.150;16.306;2023-03-01T09:48:57;9.10;66.80
33428;DHT22;19769;48.150;16.306;2023-03-01T09:51:26;9.00;67.40
33428;DHT22;19769;48.150;16.306;2023-03-01T09:53:52;8.90;67.70
33428;DHT22;19769;48.150;16.306;2023-03-01T10:04:10;8.90;69.50
33428;DHT22;19769;48.150;16.306;2023-03-01T10:06:38;8.90;70.70
33428;DHT22;19769;48.150;16.306;2023-03-01T10:09:11;8.90;69.90
33428;DHT22;19769;48.150;16.306;2023-03-01T10:11:38;9.20;68.60
33428;DHT22;19769;48.150;16.306;2023-03-01T10:18:58;9.40;67.70
33428;DHT22;19769;48.150;16.306;2023-03-01T10:21:25;9.40;67.60
33428;DHT22;19769;48.150;16.306;2023-03-01T10:23:52;9.40;69.10
33428;DHT22;19769;48.150;16.306;2023-03-01T10:26:35;9.60;68.60
33428;DHT22;19769;48.150;16.306;2023-03-01T10:29:06;9.80;68.00
33428;DHT22;19769;48.150;16.306;2023-03-01T10:31:54;10.20;67.10
33428;DHT22;19769;48.150;16.306;2023-03-01T10:34:20;10.80;66.50
33428;DHT22;19769;48.150;16.306;2023-03-01T10:36:49;11.70;63.70
33428;DHT22;19769;48.150;16.306;2023-03-01T10:39:17;12.00;61.70
33428;DHT22;19769;48.150;16.306;2023-03-01T10:41:54;12.40;61.00
33428;DHT22;19769;48.150;16.306;2023-03-01T10:47:05;12.70;58.60
33428;DHT22;19769;48.150;16.306;2023-03-01T10:49:36;12.40;58.40
33428;DHT22;19769;48.150;16.306;2023-03-01T10:52:11;12.20;58.50
33428;DHT22;19769;48.150;16.306;2023-03-01T10:54:37;12.20;58.70
33428;DHT22;19769;48.150;16.306;2023-03-01T10:57:03;12.20;58.90
33428;DHT22;19769;48.150;16.306;2023-03-01T10:59:36;12.10;58.30
33428;DHT22;19769;48.150;16.306;2023-03-01T11:04:46;12.50;58.70
33428;DHT22;19769;48.150;16.306;2023-03-01T11:07:23;12.80;59.50
33428;DHT22;19769;48.150;16.306;2023-03-01T11:09:48;13.10;56.50
33428;DHT22;19769;48.150;16.306;2023-03-01T11:12:14;13.50;55.30
33428;DHT22;19769;48.150;16.306;2023-03-01T11:14:48;13.50;56.30
33428;DHT22;19769;48.150;16.306;2023-03-01T11:17:21;13.40;55.00
33428;DHT22;19769;48.150;16.306;2023-03-01T11:22:32;13.50;54.70
33428;DHT22;19769;48.150;16.306;2023-03-01T11:24:59;14.30;54.90
33428;DHT22;19769;48.150;16.306;2023-03-01T11:27:37;14.90;52.30
33428;DHT22;19769;48.150;16.306;2023-03-01T11:30:23;15.40;51.90
33428;DHT22;19769;48.150;16.306;2023-03-01T11:35:34;15.50;49.70
33428;DHT22;19769;48.150;16.306;2023-03-01T11:38:14;15.10;49.50
33428;DHT22;19769;48.150;16.306;2023-03-01T11:43:17;14.50;50.90
33428;DHT22;19769;48.150;16.306;2023-03-01T11:48:29;14.10;51.00
33428;DHT22;19769;48.150;16.306;2023-03-01T11:50:57;13.80;51.10
33428;DHT22;19769;48.150;16.306;2023-03-01T11:53:32;13.20;52.90
33428;DHT22;19769;48.150;16.306;2023-03-01T12:01:17;12.10;55.90
33428;DHT22;19769;48.150;16.306;2023-03-01T12:06:33;12.80;54.90
33428;DHT22;19769;48.150;16.306;2023-03-01T12:32:35;12.30;55.60
33428;DHT22;19769;48.150;16.306;2023-03-01T12:35:09;12.10;55.90
33428;DHT22;19769;48.150;16.306;2023-03-01T12:37:41;12.00;56.70
33428;DHT22;19769;48.150;16.306;2023-03-01T12:50:31;11.20;59.00
33428;DHT22;19769;48.150;16.306;2023-03-01T12:52:58;11.40;59.10
33428;DHT22;19769;48.150;16.306;2023-03-01T12:57:57;12.40;57.80
33428;DHT22;19769;48.150;16.306;2023-03-01T13:03:09;14.50;54.80
33428;DHT22;19769;48.150;16.306;2023-03-01T13:05:44;16.00;51.90
33428;DHT22;19769;48.150;16.306;2023-03-01T13:08:21;17.00;49.10
33428;DHT22;19769;48.150;16.306;2023-03-01T13:10:52;17.50;48.50
33428;DHT22;19769;48.150;16.306;2023-03-01T13:13:24;17.60;49.50
33428;DHT22;19769;48.150;16.306;2023-03-01T13:15:50;17.80;50.90
33428;DHT22;19769;48.150;16.306;2023-03-01T13:20:51;19.40;44.30
33428;DHT22;19769;48.150;16.306;2023-03-01T13:31:09;17.10;46.60
33428;DHT22;19769;48.150;16.306;2023-03-01T13:36:05;17.90;46.40
33428;DHT22;19769;48.150;16.306;2023-03-01T13:41:02;21.60;41.20
33428;DHT22;19769;48.150;16.306;2023-03-01T13:43:30;21.40;40.50
33428;DHT22;19769;48.150;16.306;2023-03-01T13:45:58;20.40;41.50
33428;DHT22;19769;48.150;16.306;2023-03-01T13:48:25;19.10;42.00
33428;DHT22;19769;48.150;16.306;2023-03-01T13:50:58;18.00;44.10
33428;DHT22;19769;48.150;16.306;2023-03-01T13:53:24;16.90;45.70
33428;DHT22;19769;48.150;16.306;2023-03-01T13:55:51;16.10;48.10
33428;DHT22;19769;48.150;16.306;2023-03-01T13:58:26;14.80;50.00
33428;DHT22;19769;48.150;16.306;2023-03-01T14:00:56;14.80;50.50
33428;DHT22;19769;48.150;16.306;2023-03-01T14:03:22;14.50;51.30
33428;DHT22;19769;48.150;16.306;2023-03-01T14:06:03;14.30;52.50
33428;DHT22;19769;48.150;16.306;2023-03-01T14:08:33;14.10;53.00
33428;DHT22;19769;48.150;16.306;2023-03-01T14:19:26;15.60;51.60
33428;DHT22;19769;48.150;16.306;2023-03-01T14:21:32;16.60;49.30
33428;DHT22;19769;48.150;16.306;2023-03-01T14:23:58;18.00;47.20
33428;DHT22;19769;48.150;16.306;2023-03-01T14:26:24;18.70;45.30
33428;DHT22;19769;48.150;16.306;2023-03-01T14:28:50;18.30;45.10
33428;DHT22;19769;48.150;16.306;2023-03-01T14:33:54;17.00;47.30
33428;DHT22;19769;48.150;16.306;2023-03-01T14:36:25;15.90;48.70
33428;DHT22;19769;48.150;16.306;2023-03-01T14:38:51;15.20;50.00
33428;DHT22;19769;48.150;16.306;2023-03-01T14:41:17;14.50;51.40
33428;DHT22;19769;48.150;16.306;2023-03-01T14:43:44;13.90;53.50
33428;DHT22;19769;48.150;16.306;2023-03-01T14:46:23;13.10;55.10
33428;DHT22;19769;48.150;16.306;2023-03-01T14:48:53;12.60;56.50
33428;DHT22;19769;48.150;16.306;2023-03-01T14:51:19;12.10;57.30
33428;DHT22;19769;48.150;16.306;2023-03-01T14:53:45;11.90;58.20
33428;DHT22;19769;48.150;16.306;2023-03-01T14:56:12;11.60;58.90
33428;DHT22;19769;48.150;16.306;2023-03-01T14:58:38;11.50;60.90
33428;DHT22;19769;48.150;16.306;2023-03-01T15:01:04;11.30;60.60
33428;DHT22;19769;48.150;16.306;2023-03-01T15:03:37;11.20;60.80
33428;DHT22;19769;48.150;16.306;2023-03-01T15:06:05;11.00;61.10
33428;DHT22;19769;48.150;16.306;2023-03-01T15:08:31;10.80;61.60
33428;DHT22;19769;48.150;16.306;2023-03-01T15:13:45;10.60;63.10
33428;DHT22;19769;48.150;16.306;2023-03-01T15:16:18;10.50;63.80
33428;DHT22;19769;48.150;16.306;2023-03-01T15:18:45;10.40;64.50
33428;DHT22;19769;48.150;16.306;2023-03-01T15:23:40;10.30;65.20
33428;DHT22;19769;48.150;16.306;2023-03-01T15:26:16;10.20;65.50
33428;DHT22;19769;48.150;16.306;2023-03-01T15:28:48;10.10;65.60
33428;DHT22;19769;48.150;16.306;2023-03-01T15:33:40;10.00;66.30
33428;DHT22;19769;48.150;16.306;2023-03-01T15:38:57;9.90;67.00
33428;DHT22;19769;48.150;16.306;2023-03-01T15:43:49;9.80;68.30
33428;DHT22;19769;48.150;16.306;2023-03-01T15:46:17;9.70;68.60
33428;DHT22;19769;48.150;16.306;2023-03-01T15:48:44;9.70;68.90
33428;DHT22;19769;48.150;16.306;2023-03-01T15:51:13;9.60;69.20
33428;DHT22;19769;48.150;16.306;2023-03-01T15:53:40;9.50;69.80
33428;DHT22;19769;48.150;16.306;2023-03-01T15:56:06;9.40;69.80
33428;DHT22;19769;48.150;16.306;2023-03-01T15:58:32;9.30;69.80
33428;DHT22;19769;48.150;16.306;2023-03-01T16:00:58;9.30;70.20
33428;DHT22;19769;48.150;16.306;2023-03-01T16:03:24;9.20;70.60
33428;DHT22;19769;48.150;16.306;2023-03-01T16:05:50;9.20;71.40
33428;DHT22;19769;48.150;16.306;2023-03-01T16:08:16;9.20;71.80
33428;DHT22;19769;48.150;16.306;2023-03-01T16:10:43;9.20;72.30
33428;DHT22;19769;48.150;16.306;2023-03-01T16:13:09;9.20;72.80
33428;DHT22;19769;48.150;16.306;2023-03-01T16:15:35;9.20;74.80
33428;DHT22;19769;48.150;16.306;2023-03-01T16:18:02;9.20;73.90
33428;DHT22;19769;48.150;16.306;2023-03-01T16:20:28;9.20;74.10
33428;DHT22;19769;48.150;16.306;2023-03-01T16:22:55;9.20;73.60
33428;DHT22;19769;48.150;16.306;2023-03-01T16:25:23;9.10;73.80
33428;DHT22;19769;48.150;16.306;2023-03-01T16:27:49;9.10;73.70
33428;DHT22;19769;48.150;16.306;2023-03-01T16:30:16;9.00;74.00
33428;DHT22;19769;48.150;16.306;2023-03-01T16:32:43;9.00;74.00
33428;DHT22;19769;48.150;16.306;2023-03-01T16:35:10;9.00;74.00
33428;DHT22;19769;48.150;16.306;2023-03-01T16:37:36;9.00;74.00
33428;DHT22;19769;48.150;16.306;2023-03-01T16:40:05;9.00;73.90
33428;DHT22;19769;48.150;16.306;2023-03-01T16:42:33;9.10;74.50
33428;DHT22;19769;48.150;16.306;2023-03-01T16:45:00;9.10;74.70
33428;DHT22;19769;48.150;16.306;2023-03-01T16:47:27;9.00;74.70
33428;DHT22;19769;48.150;16.306;2023-03-01T16:49:53;9.00;74.50
33428;DHT22;19769;48.150;16.306;2023-03-01T16:52:20;8.90;75.10
33428;DHT22;19769;48.150;16.306;2023-03-01T16:54:46;8.90;75.00
33428;DHT22;19769;48.150;16.306;2023-03-01T16:57:13;8.90;75.20
33428;DHT22;19769;48.150;16.306;2023-03-01T16:59:39;8.90;75.80
33428;DHT22;19769;48.150;16.306;2023-03-01T17:02:07;8.90;75.80
33428;DHT22;19769;48.150;16.306;2023-03-01T17:04:36;8.90;76.00
33428;DHT22;19769;48.150;16.306;2023-03-01T17:07:01;8.90;77.20
33428;DHT22;19769;48.150;16.306;2023-03-01T17:09:27;8.80;77.00
33428;DHT22;19769;48.150;16.306;2023-03-01T17:11:53;8.80;77.20
33428;DHT22;19769;48.150;16.306;2023-03-01T17:14:20;8.80;77.00
33428;DHT22;19769;48.150;16.306;2023-03-01T17:16:46;8.80;77.10
33428;DHT22;19769;48.150;16.306;2023-03-01T17:19:11;8.80;77.60
33428;DHT22;19769;48.150;16.306;2023-03-01T17:21:45;8.80;77.90
33428;DHT22;19769;48.150;16.306;2023-03-01T17:24:11;8.80;78.40
33428;DHT22;19769;48.150;16.306;2023-03-01T17:26:38;8.80;81.90
33428;DHT22;19769;48.150;16.306;2023-03-01T17:29:04;8.90;84.20
33428;DHT22;19769;48.150;16.306;2023-03-01T17:31:31;8.90;84.50
33428;DHT22;19769;48.150;16.306;2023-03-01T17:33:57;9.00;83.40
33428;DHT22;19769;48.150;16.306;2023-03-01T17:36:23;9.00;85.70
33428;DHT22;19769;48.150;16.306;2023-03-01T17:38:49;9.00;80.70
33428;DHT22;19769;48.150;16.306;2023-03-01T17:41:15;9.00;80.20